.
WxDataArchive / Data Records for 2008-12-22
2008-12-21 December 2008 2008-12-23

Data Records for Monday, 22 December 2008

Time	Temp	Chill	HIndex	Humid	Dewpt	 Wind 	HiWind	WindDir	Rain 	Barom 
-----	----	-----	------	-----	-----	------	------	-------	-----	----- 
00:00	-2.0	-2.0	-2.0	69	-9.6	3	11	270	0.00	30.197 
00:05	-2.0	-11.2	-2.0	69	-9.6	4	10	270	0.00	30.198 
00:10	-2.0	-11.2	-2.0	69	-9.6	4	10	270	0.00	30.199 
00:15	-2.0	-11.2	-2.0	69	-9.6	4	11	270	0.00	30.200 
00:20	-2.0	-11.2	-2.0	69	-9.6	4	13	270	0.00	30.205 
00:25	-2.0	-2.0	-2.0	69	-9.6	3	9	270	0.00	30.205 
00:30	-2.0	-11.2	-2.0	69	-9.6	4	9	270	0.00	30.210 
00:35	-1.8	-1.8	-1.8	70	-9.2	3	10	270	0.00	30.211 
00:40	-1.8	-1.8	-1.8	70	-9.2	3	7	270	0.00	30.212 
00:45	-1.8	-1.8	-1.8	70	-9.2	3	9	248	0.00	30.213 
00:50	-1.8	-1.8	-1.8	70	-9.2	3	9	270	0.00	30.214 
00:55	-1.8	-11.0	-1.8	70	-9.2	4	7	270	0.00	30.216 
01:00	-1.6	-1.6	-1.6	70	-9.0	3	12	270	0.00	30.215 
01:05	-1.6	-1.6	-1.6	70	-9.0	2	7	270	0.00	30.218 
01:10	-1.6	-1.6	-1.6	70	-9.0	3	7	270	0.00	30.219 
01:15	-1.6	-1.6	-1.6	70	-9.0	3	9	270	0.00	30.219 
01:20	-1.6	-10.7	-1.6	70	-9.0	4	11	248	0.00	30.221 
01:25	-1.4	-10.5	-1.4	70	-8.8	4	10	270	0.00	30.220 
01:30	-1.4	-1.4	-1.4	70	-8.8	3	7	270	0.00	30.222 
01:35	-1.4	-1.4	-1.4	71	-8.5	3	14	248	0.00	30.227 
01:40	-1.4	-10.5	-1.4	71	-8.5	4	10	270	0.00	30.225 
01:45	-1.4	-1.4	-1.4	71	-8.5	3	10	270	0.00	30.224 
01:50	-1.4	-1.4	-1.4	71	-8.5	3	10	270	0.00	30.224 
01:55	-1.4	-10.5	-1.4	71	-8.5	4	11	270	0.00	30.228 
02:00	-1.2	-1.2	-1.2	71	-8.3	3	7	270	0.00	30.228 
02:05	-1.2	-1.2	-1.2	71	-8.3	3	10	270	0.00	30.227 
02:10	-1.2	-1.2	-1.2	71	-8.3	3	7	248	0.00	30.228 
02:15	-1.2	-1.2	-1.2	72	-8.0	3	8	270	0.00	30.233 
02:20	-1.2	-1.2	-1.2	72	-8.0	3	11	248	0.00	30.233 
02:25	-1.0	-1.0	-1.0	72	-7.8	3	9	270	0.00	30.239 
02:30	-1.0	-11.7	-1.0	72	-7.8	5	14	270	0.00	30.241 
02:35	-1.0	-1.0	-1.0	72	-7.8	3	9	270	0.00	30.245 
02:40	-0.8	-9.8	-0.8	72	-7.6	4	11	270	0.00	30.245 
02:45	-0.8	-9.8	-0.8	72	-7.6	4	10	270	0.00	30.255 
02:50	-0.8	-11.4	-0.8	72	-7.6	5	12	248	0.00	30.252 
02:55	-0.8	-9.8	-0.8	72	-7.6	4	10	270	0.00	30.261 
03:00	-0.8	-0.8	-0.8	72	-7.6	3	7	270	0.00	30.263 
03:05	-0.6	-0.6	-0.6	72	-7.4	3	9	270	0.00	30.270 
03:10	-0.6	-9.6	-0.6	72	-7.4	4	11	270	0.00	30.272 
03:15	-0.6	-0.6	-0.6	72	-7.4	3	7	270	0.00	30.267 
03:20	-0.6	-0.6	-0.6	72	-7.4	3	13	270	0.00	30.271 
03:25	-0.6	-9.6	-0.6	72	-7.4	4	12	270	0.00	30.268 
03:30	-0.4	-11.0	-0.4	72	-7.2	5	13	248	0.00	30.272 
03:35	-0.4	-9.3	-0.4	72	-7.2	4	11	270	0.00	30.275 
03:40	-0.4	-9.3	-0.4	73	-6.9	4	12	270	0.00	30.278 
03:45	-0.2	-9.1	-0.2	73	-6.8	4	9	270	0.00	30.276 
03:50	-0.2	-0.2	-0.2	73	-6.8	3	9	270	0.00	30.276 
03:55	-0.2	-0.2	-0.2	73	-6.8	3	11	270	0.00	30.277 
04:00	-0.2	-0.2	-0.2	73	-6.8	3	7	270	0.00	30.277 
04:05	-0.2	-0.2	-0.2	73	-6.8	3	7	270	0.00	30.280 
04:10	0.0	0.0	0.0	73	-6.6	3	7	270	0.00	30.280 
04:15	0.0	-8.9	0.0	73	-6.6	4	10	270	0.00	30.280 
04:20	0.0	0.0	0.0	73	-6.6	2	6	270	0.00	30.289 
04:25	0.0	0.0	0.0	73	-6.6	2	9	270	0.00	30.290 
04:30	0.1	0.1	0.1	73	-6.5	3	6	248	0.00	30.290 
04:35	0.1	0.1	0.1	73	-6.5	3	6	270	0.00	30.291 
04:40	0.1	0.1	0.1	73	-6.5	2	6	270	0.00	30.292 
04:45	0.1	0.1	0.1	73	-6.5	3	9	248	0.00	30.293 
04:50	0.1	0.1	0.1	73	-6.5	2	6	270	0.00	30.294 
04:55	0.1	0.1	0.1	73	-6.5	3	9	248	0.00	30.298 
05:00	0.1	0.1	0.1	73	-6.5	3	8	270	0.00	30.298 
05:05	0.1	0.1	0.1	73	-6.5	3	12	270	0.00	30.302 
05:10	0.1	0.1	0.1	73	-6.5	3	9	248	0.00	30.306 
05:15	0.1	0.1	0.1	74	-6.2	2	7	248	0.00	30.310 
05:20	0.1	0.1	0.1	74	-6.2	3	10	248	0.00	30.310 
05:25	0.1	0.1	0.1	74	-6.2	2	6	248	0.00	30.311 
05:30	0.1	0.1	0.1	74	-6.2	3	10	270	0.00	30.316 
05:35	0.3	-8.5	0.3	74	-6.0	4	11	270	0.00	30.316 
05:40	0.3	0.3	0.3	74	-6.0	3	6	270	0.00	30.323 
05:45	0.3	0.3	0.3	74	-6.0	3	9	270	0.00	30.326 
05:50	0.3	0.3	0.3	74	-6.0	3	9	270	0.00	30.327 
05:55	0.3	0.3	0.3	74	-6.0	3	9	270	0.00	30.336 
06:00	0.3	0.3	0.3	74	-6.0	3	10	270	0.00	30.338 
06:05	0.3	0.3	0.3	74	-6.0	3	7	270	0.00	30.339 
06:10	0.3	0.3	0.3	74	-6.0	3	9	270	0.00	30.341 
06:15	0.5	0.5	0.5	74	-5.8	3	6	270	0.00	30.340 
06:20	0.5	0.5	0.5	74	-5.8	3	9	270	0.00	30.340 
06:25	0.5	0.5	0.5	74	-5.8	3	9	248	0.00	30.340 
06:30	0.7	0.7	0.7	74	-5.6	3	7	270	0.00	30.341 
06:35	0.7	0.7	0.7	74	-5.6	3	5	248	0.00	30.344 
06:40	0.7	0.7	0.7	75	-5.3	3	7	270	0.00	30.347 
06:45	0.7	0.7	0.7	75	-5.3	2	9	270	0.00	30.350 
06:50	0.7	0.7	0.7	75	-5.3	3	7	248	0.00	30.350 
06:55	0.9	0.9	0.9	75	-5.1	3	9	248	0.00	30.352 
07:00	0.9	0.9	0.9	75	-5.1	3	10	248	0.00	30.353 
07:05	0.9	0.9	0.9	75	-5.1	3	9	248	0.00	30.355 
07:10	0.9	-7.8	0.9	75	-5.1	4	12	248	0.00	30.356 
07:15	1.1	1.1	1.1	75	-4.9	2	6	248	0.00	30.363 
07:20	1.1	-7.6	1.1	75	-4.9	4	13	248	0.00	30.365 
07:25	1.1	1.1	1.1	75	-4.9	3	7	270	0.00	30.365 
07:30	1.3	1.3	1.3	75	-4.7	3	7	248	0.00	30.370 
07:35	1.3	1.3	1.3	75	-4.7	3	11	248	0.00	30.371 
07:40	1.3	1.3	1.3	75	-4.7	3	7	270	0.00	30.373 
07:45	1.3	1.3	1.3	75	-4.7	2	5	270	0.00	30.378 
07:50	1.3	1.3	1.3	76	-4.5	3	9	248	0.00	30.379 
07:55	1.3	1.3	1.3	76	-4.5	3	9	248	0.00	30.380 
08:00	1.5	-7.2	1.5	76	-4.3	4	7	270	0.00	30.387 
08:05	1.5	1.5	1.5	76	-4.3	3	10	248	0.00	30.390 
08:10	1.5	-8.7	1.5	75	-4.6	5	10	270	0.00	30.393 
08:15	1.5	1.5	1.5	75	-4.6	3	7	248	0.00	30.398 
08:20	1.5	1.5	1.5	75	-4.6	3	11	270	0.00	30.403 
08:25	1.7	1.7	1.7	75	-4.4	3	9	248	0.00	30.404 
08:30	1.7	1.7	1.7	75	-4.4	3	9	270	0.00	30.406 
08:35	1.7	-6.9	1.7	75	-4.4	4	13	270	0.00	30.404 
08:40	1.7	1.7	1.7	75	-4.4	3	8	248	0.00	30.407 
08:45	1.8	1.8	1.8	75	-4.3	3	7	248	0.00	30.415 
08:50	1.8	1.8	1.8	75	-4.3	3	12	270	0.00	30.419 
08:55	1.8	1.8	1.8	75	-4.3	3	7	270	0.00	30.419 
09:00	2.0	2.0	2.0	75	-4.1	3	6	248	0.00	30.421 
09:05	2.0	2.0	2.0	76	-3.8	2	4	248	0.00	30.426 
09:10	2.0	2.0	2.0	75	-4.1	3	7	270	0.00	30.432 
09:15	2.0	2.0	2.0	75	-4.1	3	9	248	0.00	30.431 
09:20	2.2	2.2	2.2	75	-3.9	3	9	248	0.00	30.433 
09:25	2.2	-6.3	2.2	75	-3.9	4	11	270	0.00	30.440 
09:30	2.2	-6.3	2.2	75	-3.9	4	10	248	0.00	30.443 
09:35	2.2	-6.3	2.2	75	-3.9	4	11	270	0.00	30.448 
09:40	2.2	2.2	2.2	75	-3.9	3	9	248	0.00	30.445 
09:45	2.2	2.2	2.2	75	-3.9	3	5	270	0.00	30.443 
09:50	2.2	-6.3	2.2	74	-4.2	4	11	270	0.00	30.439 
09:55	2.4	2.4	2.4	75	-3.7	2	5	248	0.00	30.440 
10:00	2.6	2.6	2.6	75	-3.5	3	10	248	0.00	30.453 
10:05	2.8	2.8	2.8	75	-3.3	2	6	270	0.00	30.462 
10:10	2.8	2.8	2.8	75	-3.3	3	11	270	0.00	30.462 
10:15	2.8	-5.7	2.8	74	-3.6	4	11	270	0.00	30.465 
10:20	2.8	-5.7	2.8	74	-3.6	4	9	270	0.00	30.463 
10:25	3.0	3.0	3.0	75	-3.1	3	11	248	0.00	30.467 
10:30	3.0	3.0	3.0	74	-3.4	3	7	270	0.00	30.470 
10:35	3.2	3.2	3.2	73	-3.5	3	9	270	0.00	30.474 
10:40	3.4	3.4	3.4	74	-3.0	2	6	248	0.00	30.477 
10:45	3.5	3.5	3.5	74	-2.9	2	7	248	0.00	30.478 
10:50	3.4	-5.0	3.4	73	-3.3	4	12	270	0.00	30.480 
10:55	3.5	3.5	3.5	73	-3.2	3	9	248	0.00	30.480 
11:00	3.7	3.7	3.7	73	-3.0	2	5	270	0.00	30.486 
11:05	3.9	3.9	3.9	74	-2.5	2	6	270	0.00	30.486 
11:10	4.1	4.1	4.1	74	-2.3	2	6	270	0.00	30.482 
11:15	4.3	4.3	4.3	74	-2.1	2	7	248	0.00	30.483 
11:20	4.3	4.3	4.3	73	-2.4	3	10	248	0.00	30.485 
11:25	4.5	4.5	4.5	74	-1.9	1	3	270	0.00	30.487 
11:30	4.7	4.7	4.7	73	-2.0	2	6	248	0.00	30.487 
11:35	5.0	5.0	5.0	74	-1.4	2	5	248	0.00	30.486 
11:40	5.2	5.2	5.2	74	-1.2	2	5	248	0.00	30.482 
11:45	5.2	5.2	5.2	74	-1.2	2	6	248	0.00	30.482 
11:50	5.6	5.6	5.6	74	-0.9	2	5	248	0.00	30.480 
11:55	6.0	6.0	6.0	75	-0.2	1	3	248	0.00	30.478 
12:00	6.1	6.1	6.1	74	-0.4	2	6	248	0.00	30.479 
12:05	6.0	6.0	6.0	74	-0.5	3	7	248	0.00	30.478 
12:10	6.1	6.1	6.1	74	-0.4	2	5	248	0.00	30.477 
12:15	6.5	6.5	6.5	75	0.3	2	11	270	0.00	30.477 
12:20	6.5	6.5	6.5	74	0.0	1	5	248	0.00	30.469 
12:25	6.9	6.9	6.9	75	0.7	2	4	248	0.00	30.465 
12:30	7.0	7.0	7.0	75	0.8	2	3	248	0.00	30.468 
12:35	7.2	7.2	7.2	75	1.0	2	4	270	0.00	30.467 
12:40	7.4	7.4	7.4	74	0.9	3	7	248	0.00	30.468 
12:45	7.2	7.2	7.2	74	0.7	3	9	270	0.00	30.465 
12:50	7.6	7.6	7.6	74	1.1	2	5	248	0.00	30.464 
12:55	7.7	7.7	7.7	74	1.2	2	5	248	0.00	30.464 
13:00	7.9	7.9	7.9	74	1.4	2	5	270	0.00	30.469 
13:05	8.1	8.1	8.1	75	1.8	2	6	248	0.00	30.468 
13:10	8.1	8.1	8.1	74	1.6	3	7	248	0.00	30.468 
13:15	8.1	8.1	8.1	74	1.6	3	9	248	0.00	30.461 
13:20	8.3	8.3	8.3	75	2.0	1	4	270	0.00	30.459 
13:25	8.6	8.6	8.6	75	2.3	2	5	248	0.00	30.462 
13:30	8.8	8.8	8.8	74	2.2	2	5	248	0.00	30.458 
13:35	9.2	9.2	9.2	75	2.9	2	5	248	0.00	30.461 
13:40	9.3	9.3	9.3	75	3.0	2	5	248	0.00	30.460 
13:45	9.7	9.7	9.7	74	3.1	2	5	270	0.00	30.460 
13:50	9.5	9.5	9.5	73	2.6	2	6	270	0.00	30.464 
13:55	9.5	9.5	9.5	73	2.6	3	5	270	0.00	30.460 
14:00	9.5	9.5	9.5	73	2.6	2	5	248	0.00	30.458 
14:05	9.5	9.5	9.5	73	2.6	3	7	292	0.00	30.462 
14:10	9.9	9.9	9.9	73	3.0	2	5	270	0.00	30.469 
14:15	9.9	9.9	9.9	73	3.0	2	5	270	0.00	30.471 
14:20	9.9	9.9	9.9	73	3.0	2	6	270	0.00	30.472 
14:25	10.2	10.2	10.2	74	3.6	1	4	248	0.00	30.467 
14:30	10.4	10.4	10.4	74	3.8	1	5	248	0.00	30.469 
14:35	10.4	10.4	10.4	73	3.5	2	6	270	0.00	30.472 
14:40	10.2	10.2	10.2	73	3.3	2	6	270	0.00	30.472 
14:45	10.4	10.4	10.4	73	3.5	2	6	248	0.00	30.471 
14:50	10.2	10.2	10.2	72	3.0	3	9	248	0.00	30.470 
14:55	10.2	10.2	10.2	72	3.0	2	4	270	0.00	30.468 
15:00	10.0	10.0	10.0	73	3.1	2	7	248	0.00	30.472 
15:05	10.2	10.2	10.2	73	3.3	2	4	248	0.00	30.471 
15:10	10.4	10.4	10.4	73	3.5	2	4	270	0.00	30.468 
15:15	10.5	10.5	10.5	73	3.6	2	7	248	0.00	30.467 
15:20	10.4	10.4	10.4	73	3.5	2	5	248	0.00	30.471 
15:25	10.4	10.4	10.4	73	3.5	2	6	248	0.00	30.472 
15:30	10.5	10.5	10.5	73	3.6	2	5	248	0.00	30.473 
15:35	10.7	10.7	10.7	73	3.8	2	5	248	0.00	30.474 
15:40	10.7	10.7	10.7	71	3.2	2	6	248	0.00	30.473 
15:45	10.4	10.4	10.4	71	2.9	2	6	248	0.00	30.475 
15:50	10.4	10.4	10.4	72	3.2	2	4	270	0.00	30.475 
15:55	10.4	10.4	10.4	72	3.2	2	6	248	0.00	30.479 
16:00	10.4	10.4	10.4	72	3.2	1	4	248	0.00	30.483 
16:05	10.4	10.4	10.4	72	3.2	2	5	248	0.00	30.487 
16:10	10.2	10.2	10.2	72	3.0	2	5	248	0.00	30.487 
16:15	10.2	10.2	10.2	72	3.0	1	5	225	0.00	30.488 
16:20	10.0	10.0	10.0	72	2.8	2	6	248	0.00	30.489 
16:25	10.0	10.0	10.0	72	2.8	2	5	270	0.00	30.490 
16:30	10.0	10.0	10.0	72	2.8	1	4	248	0.00	30.490 
16:35	9.9	9.9	9.9	72	2.7	1	3	270	0.00	30.490 
16:40	9.7	9.7	9.7	72	2.5	1	3	248	0.00	30.487 
16:45	9.5	9.5	9.5	71	2.0	1	4	248	0.00	30.489 
16:50	9.3	9.3	9.3	71	1.8	1	4	248	0.00	30.490 
16:55	9.3	9.3	9.3	71	1.8	1	4	248	0.00	30.497 
17:00	9.2	9.2	9.2	72	2.0	1	3	248	0.00	30.499 
17:05	9.0	9.0	9.0	72	1.8	1	3	248	0.00	30.495 
17:10	9.0	9.0	9.0	72	1.8	0	2	248	0.00	30.492 
17:15	8.8	8.8	8.8	73	1.9	1	3	248	0.00	30.493 
17:20	8.8	8.8	8.8	73	1.9	1	2	248	0.00	30.496 
17:25	8.6	8.6	8.6	73	1.8	1	3	248	0.00	30.499 
17:30	8.6	8.6	8.6	73	1.8	1	3	248	0.00	30.502 
17:35	8.6	8.6	8.6	74	2.0	0	3	248	0.00	30.504 
17:40	8.4	8.4	8.4	74	1.8	1	3	248	0.00	30.507 
17:45	8.4	8.4	8.4	74	1.8	0	2	248	0.00	30.506 
17:50	8.4	8.4	8.4	74	1.8	1	4	248	0.00	30.505 
17:55	8.4	8.4	8.4	74	1.8	1	3	270	0.00	30.506 
18:00	8.4	8.4	8.4	74	1.8	0	2	270	0.00	30.507 
18:05	8.4	8.4	8.4	74	1.8	1	2	248	0.00	30.510 
18:10	8.4	8.4	8.4	74	1.8	0	2	248	0.00	30.507 
18:15	8.3	8.3	8.3	75	2.0	1	2	248	0.00	30.506 
18:20	8.4	8.4	8.4	75	2.1	1	4	248	0.00	30.506 
18:25	8.4	8.4	8.4	75	2.1	0	1	248	0.00	30.507 
18:30	8.4	8.4	8.4	75	2.1	1	4	248	0.00	30.507 
18:35	8.4	8.4	8.4	75	2.1	0	3	248	0.00	30.507 
18:40	8.3	8.3	8.3	75	2.0	0	2	248	0.00	30.508 
18:45	8.3	8.3	8.3	75	2.0	0	1	248	0.00	30.508 
18:50	8.1	8.1	8.1	76	2.1	0	1	248	0.00	30.505 
18:55	8.1	8.1	8.1	76	2.1	0	1	248	0.00	30.504 
19:00	7.9	7.9	7.9	76	1.9	0	0	---	0.00	30.503 
19:05	7.7	7.7	7.7	76	1.7	0	0	---	0.00	30.503 
19:10	7.4	7.4	7.4	76	1.5	0	0	---	0.00	30.503 
19:15	7.2	7.2	7.2	76	1.3	0	0	---	0.00	30.504 
19:20	7.0	7.0	7.0	76	1.1	0	0	---	0.00	30.505 
19:25	6.7	6.7	6.7	76	0.8	0	0	---	0.00	30.505 
19:30	6.5	6.5	6.5	76	0.6	0	0	---	0.00	30.506 
19:35	6.1	6.1	6.1	76	0.2	0	0	---	0.00	30.506 
19:40	6.0	6.0	6.0	76	0.1	0	0	---	0.00	30.505 
19:45	5.8	5.8	5.8	76	-0.1	0	0	---	0.00	30.505 
19:50	5.8	5.8	5.8	77	0.2	0	0	---	0.00	30.506 
19:55	5.6	5.6	5.6	77	-0.0	0	0	---	0.00	30.506 
20:00	5.6	5.6	5.6	77	-0.0	0	0	---	0.00	30.505 
20:05	5.4	5.4	5.4	77	-0.2	0	0	---	0.00	30.507 
20:10	5.2	5.2	5.2	78	-0.1	0	0	---	0.00	30.506 
20:15	5.2	5.2	5.2	78	-0.1	0	0	---	0.00	30.507 
20:20	5.0	5.0	5.0	78	-0.3	0	0	---	0.00	30.509 
20:25	5.0	5.0	5.0	78	-0.3	0	0	---	0.00	30.514 
20:30	4.8	4.8	4.8	78	-0.5	0	0	---	0.00	30.516 
20:35	4.8	4.8	4.8	78	-0.5	0	0	---	0.00	30.515 
20:40	4.7	4.7	4.7	78	-0.6	0	0	---	0.00	30.514 
20:45	4.5	4.5	4.5	79	-0.5	0	0	---	0.00	30.515 
20:50	4.5	4.5	4.5	79	-0.5	0	0	---	0.00	30.518 
20:55	4.5	4.5	4.5	79	-0.5	0	0	---	0.00	30.522 
21:00	4.5	4.5	4.5	79	-0.5	0	0	---	0.00	30.523 
21:05	4.3	4.3	4.3	79	-0.7	0	0	---	0.00	30.522 
21:10	4.3	4.3	4.3	80	-0.5	0	0	---	0.00	30.526 
21:15	4.3	4.3	4.3	80	-0.5	0	0	---	0.00	30.527 
21:20	4.3	4.3	4.3	80	-0.5	0	0	---	0.00	30.525 
21:25	4.3	4.3	4.3	80	-0.5	0	0	---	0.00	30.528 
21:30	4.7	4.7	4.7	81	0.2	0	0	---	0.00	30.524 
21:35	5.0	5.0	5.0	82	0.7	0	1	248	0.00	30.528 
21:40	5.6	5.6	5.6	82	1.3	0	1	248	0.00	30.529 
21:45	6.3	6.3	6.3	83	2.3	0	1	248	0.00	30.531 
21:50	6.9	6.9	6.9	83	2.9	0	2	248	0.00	30.531 
21:55	7.2	7.2	7.2	83	3.1	0	2	248	0.00	30.531 
22:00	7.7	7.7	7.7	83	3.6	0	3	248	0.00	30.530 
22:05	8.3	8.3	8.3	83	4.2	1	2	225	0.00	30.528 
22:10	8.6	8.6	8.6	82	4.3	1	5	248	0.00	30.526 
22:15	9.0	9.0	9.0	82	4.6	1	4	248	0.00	30.525 
22:20	9.3	9.3	9.3	81	4.7	1	5	248	0.00	30.522 
22:25	9.7	9.7	9.7	80	4.8	1	3	270	0.00	30.520 
22:30	9.7	9.7	9.7	80	4.8	1	4	248	0.00	30.525 
22:35	9.9	9.9	9.9	79	4.7	0	3	248	0.00	30.527 
22:40	9.9	9.9	9.9	79	4.7	1	3	248	0.00	30.529 
22:45	9.9	9.9	9.9	78	4.4	1	4	225	0.00	30.531 
22:50	9.9	9.9	9.9	78	4.4	1	3	225	0.00	30.536 
22:55	10.0	10.0	10.0	78	4.5	1	3	248	0.00	30.533 
23:00	10.0	10.0	10.0	78	4.5	0	3	248	0.00	30.533 
23:05	10.0	10.0	10.0	78	4.5	0	2	248	0.00	30.529 
23:10	10.0	10.0	10.0	78	4.5	1	3	248	0.00	30.532 
23:15	10.0	10.0	10.0	78	4.5	0	2	248	0.00	30.532 
23:20	10.0	10.0	10.0	78	4.5	0	1	248	0.00	30.529 
23:25	10.0	10.0	10.0	78	4.5	0	1	248	0.00	30.528 
23:30	10.0	10.0	10.0	78	4.5	0	0	---	0.00	30.528 
23:35	10.0	10.0	10.0	78	4.5	0	0	---	0.00	30.527 
23:40	10.0	10.0	10.0	78	4.5	0	0	---	0.00	30.527 
23:45	10.0	10.0	10.0	79	4.8	0	1	248	0.00	30.525 
23:50	10.0	10.0	10.0	79	4.8	0	0	---	0.00	30.525 
23:55	10.0	10.0	10.0	79	4.8	0	0	---	0.00	30.523 

CoCoRaHS
IN-AL-39
A2 Web Hosting
Creative Commons License
GoDaddy
search engine by freefind advanced

loaded 2018-11-13 23:27:26 • last modified 2010-11-18 10:43:29
Privacy PolicyDisclaimer
• wx.awcolley.com is powered by PmWiki v.2002016 •
• all content (unless otherwise noted) © 2018 A W Colley